Time,TemperatureF,DewpointF,PressureIn,WindDirection,WindDirectionDegrees,WindSpeedMPH,WindSpeedGustMPH,Humidity,HourlyPrecipIn,Conditions,Clouds,dailyrainin,SoftwareType,DateUTC
2013-08-26 00:02:00,73.0,67.5,30.08,NNW,337,17.0,35.0,83,0.00,,,0.00,Weather View 32 v70,2013-08-26 10:02:00,
2013-08-26 00:07:00,73.0,67.2,30.07,NNW,343,18.0,35.0,82,0.00,,,0.00,Weather View 32 v70,2013-08-26 10:07:00,
2013-08-26 00:12:00,73.0,67.2,30.08,NNW,335,16.0,35.0,82,0.00,,,0.00,Weather View 32 v70,2013-08-26 10:12:00,
2013-08-26 00:17:00,73.0,67.2,30.08,NNW,330,23.0,35.0,82,0.00,,,0.00,Weather View 32 v70,2013-08-26 10:17:00,
2013-08-26 00:22:00,73.2,66.6,30.08,NNW,344,21.0,40.0,80,0.00,,,0.00,Weather View 32 v70,2013-08-26 10:22:00,
2013-08-26 00:27:00,73.1,66.9,30.07,NNW,345,22.0,40.0,81,0.00,,,0.00,Weather View 32 v70,2013-08-26 10:27:00,
2013-08-26 00:32:00,73.1,66.5,30.07,NNW,336,18.0,40.0,80,0.00,,,0.00,Weather View 32 v70,2013-08-26 10:32:00,
2013-08-26 00:37:00,73.0,67.2,30.07,NNW,337,11.0,40.0,82,0.00,,,0.00,Weather View 32 v70,2013-08-26 10:37:00,
2013-08-26 00:42:00,72.9,67.1,30.07,NNW,342,17.0,40.0,82,0.00,,,0.00,Weather View 32 v70,2013-08-26 10:42:00,
2013-08-26 00:47:00,73.1,66.9,30.08,NNW,327,19.0,40.0,81,0.00,,,0.00,Weather View 32 v70,2013-08-26 10:47:00,
2013-08-26 00:52:00,73.2,66.6,30.07,NW,326,14.0,40.0,80,0.00,,,0.00,Weather View 32 v70,2013-08-26 10:52:00,
2013-08-26 00:57:00,73.1,66.5,30.07,NW,322,15.0,40.0,80,0.00,,,0.00,Weather View 32 v70,2013-08-26 10:57:00,
2013-08-26 01:02:00,73.1,66.5,30.07,NNE,15,16.0,40.0,80,0.00,,,0.00,Weather View 32 v70,2013-08-26 11:02:00,
2013-08-26 01:07:00,73.2,66.3,30.06,NNW,337,20.0,40.0,79,0.00,,,0.00,Weather View 32 v70,2013-08-26 11:07:00,
2013-08-26 01:12:00,73.2,67.0,30.05,NW,326,32.0,40.0,81,0.00,,,0.00,Weather View 32 v70,2013-08-26 11:12:00,
2013-08-26 01:17:00,73.1,67.3,30.06,NNW,348,25.0,40.0,82,0.00,,,0.00,Weather View 32 v70,2013-08-26 11:17:00,
2013-08-26 01:22:00,73.0,67.2,30.06,North,350,21.0,34.0,82,0.00,,,0.00,Weather View 32 v70,2013-08-26 11:22:00,
2013-08-26 01:27:00,72.9,67.4,30.07,NNW,334,20.0,34.0,83,0.00,,,0.00,Weather View 32 v70,2013-08-26 11:27:00,
2013-08-26 01:32:00,72.8,67.7,30.06,NNW,327,24.0,34.0,84,0.00,,,0.00,Weather View 32 v70,2013-08-26 11:32:00,
2013-08-26 01:37:00,72.9,67.8,30.06,North,4,18.0,34.0,84,0.00,,,0.00,Weather View 32 v70,2013-08-26 11:37:00,
2013-08-26 01:42:00,72.9,67.4,30.05,NW,310,26.0,34.0,83,0.00,,,0.00,Weather View 32 v70,2013-08-26 11:42:00,
2013-08-26 01:47:00,73.1,67.3,30.05,North,350,19.0,35.0,82,0.00,,,0.00,Weather View 32 v70,2013-08-26 11:47:00,
2013-08-26 01:52:00,73.2,67.0,30.04,North,353,23.0,35.0,81,0.00,,,0.00,Weather View 32 v70,2013-08-26 11:52:00,
2013-08-26 01:57:00,73.2,66.6,30.05,North,355,10.0,35.0,80,0.00,,,0.00,Weather View 32 v70,2013-08-26 11:57:00,
2013-08-26 02:02:00,73.2,66.6,30.04,NW,323,23.0,35.0,80,0.00,,,0.00,Weather View 32 v70,2013-08-26 12:02:00,
2013-08-26 02:07:00,73.2,66.3,30.04,NW,318,20.0,35.0,79,0.00,,,0.00,Weather View 32 v70,2013-08-26 12:07:00,
2013-08-26 02:13:00,73.3,66.0,30.05,NW,323,14.0,38.0,78,0.00,,,0.00,Weather View 32 v70,2013-08-26 12:13:00,
2013-08-26 02:18:00,73.3,66.0,30.05,NW,323,17.0,38.0,78,0.00,,,0.00,Weather View 32 v70,2013-08-26 12:18:00,
2013-08-26 02:23:00,73.2,67.0,30.05,NW,326,14.0,38.0,81,0.00,,,0.00,Weather View 32 v70,2013-08-26 12:23:00,
2013-08-26 02:28:00,73.0,66.8,30.03,North,352,37.0,38.0,81,0.00,,,0.00,Weather View 32 v70,2013-08-26 12:28:00,
2013-08-26 02:33:00,73.2,67.0,30.04,North,6,19.0,38.0,81,0.00,,,0.00,Weather View 32 v70,2013-08-26 12:33:00,
2013-08-26 02:38:00,73.2,67.0,30.04,North,349,23.0,38.0,81,0.00,,,0.00,Weather View 32 v70,2013-08-26 12:38:00,
2013-08-26 02:43:00,73.0,67.2,30.04,NNW,341,22.0,38.0,82,0.00,,,0.00,Weather View 32 v70,2013-08-26 12:43:00,
2013-08-26 02:48:00,72.9,67.4,30.04,NNW,336,28.0,38.0,83,0.00,,,0.00,Weather View 32 v70,2013-08-26 12:48:00,
2013-08-26 02:53:00,72.9,67.4,30.04,North,7,25.0,40.0,83,0.00,,,0.00,Weather View 32 v70,2013-08-26 12:53:00,
2013-08-26 02:58:00,73.0,67.2,30.04,North,349,24.0,40.0,82,0.00,,,0.00,Weather View 32 v70,2013-08-26 12:58:00,
2013-08-26 03:03:00,73.1,66.2,30.04,NNW,336,14.0,40.0,79,0.00,,,0.00,Weather View 32 v70,2013-08-26 13:03:00,
2013-08-26 03:08:00,73.3,66.0,30.04,NW,322,26.0,40.0,78,0.00,,,0.00,Weather View 32 v70,2013-08-26 13:08:00,
2013-08-26 03:13:00,73.4,66.1,30.04,North,350,24.0,40.0,78,0.00,,,0.00,Weather View 32 v70,2013-08-26 13:13:00,
2013-08-26 03:18:00,73.3,66.4,30.03,NNE,16,28.0,40.0,79,0.00,,,0.00,Weather View 32 v70,2013-08-26 13:18:00,
2013-08-26 03:23:00,73.2,67.0,30.04,NW,323,17.0,40.0,81,0.00,,,0.00,Weather View 32 v70,2013-08-26 13:23:00,
2013-08-26 03:28:00,73.0,67.5,30.03,NNW,343,29.0,40.0,83,0.00,,,0.00,Weather View 32 v70,2013-08-26 13:28:00,
2013-08-26 03:33:00,72.8,67.7,30.04,North,7,20.0,40.0,84,0.00,,,0.00,Weather View 32 v70,2013-08-26 13:33:00,
2013-08-26 03:38:00,72.8,67.7,30.04,NNW,337,20.0,40.0,84,0.00,,,0.00,Weather View 32 v70,2013-08-26 13:38:00,
2013-08-26 03:43:00,72.7,67.9,30.03,NNE,14,22.0,40.0,85,0.00,,,0.00,Weather View 32 v70,2013-08-26 13:43:00,
2013-08-26 03:48:00,72.6,67.8,30.04,North,357,29.0,40.0,85,0.00,,,0.00,Weather View 32 v70,2013-08-26 13:48:00,
2013-08-26 03:53:00,72.5,67.7,30.04,NNW,331,27.0,39.0,85,0.00,,,0.00,Weather View 32 v70,2013-08-26 13:53:00,
2013-08-26 03:58:00,72.6,67.5,30.04,NNW,328,17.0,39.0,84,0.00,,,0.00,Weather View 32 v70,2013-08-26 13:58:00,
2013-08-26 04:03:00,72.6,67.5,30.04,NNW,347,23.0,39.0,84,0.00,,,0.00,Weather View 32 v70,2013-08-26 14:03:00,
2013-08-26 04:08:00,72.6,67.5,30.04,NNW,338,18.0,39.0,84,0.00,,,0.00,Weather View 32 v70,2013-08-26 14:08:00,
2013-08-26 04:13:00,72.8,67.7,30.03,NW,324,26.0,39.0,84,0.00,,,0.00,Weather View 32 v70,2013-08-26 14:13:00,
2013-08-26 04:18:00,72.7,67.6,30.04,NW,324,11.0,37.0,84,0.00,,,0.00,Weather View 32 v70,2013-08-26 14:18:00,
2013-08-26 04:23:00,72.5,67.0,30.04,NW,309,14.0,37.0,83,0.00,,,0.00,Weather View 32 v70,2013-08-26 14:23:00,
2013-08-26 04:28:00,72.7,66.9,30.04,North,353,16.0,37.0,82,0.00,,,0.00,Weather View 32 v70,2013-08-26 14:28:00,
2013-08-26 04:33:00,72.6,66.8,30.04,North,6,16.0,36.0,82,0.00,,,0.00,Weather View 32 v70,2013-08-26 14:33:00,
2013-08-26 04:38:00,72.5,67.0,30.05,NNW,343,21.0,36.0,83,0.00,,,0.00,Weather View 32 v70,2013-08-26 14:38:00,
2013-08-26 04:43:00,72.5,66.7,30.05,North,355,25.0,36.0,82,0.00,,,0.00,Weather View 32 v70,2013-08-26 14:43:00,
2013-08-26 04:48:00,72.8,65.9,30.05,NNE,14,18.0,36.0,79,0.00,,,0.00,Weather View 32 v70,2013-08-26 14:48:00,
2013-08-26 04:53:00,72.9,66.0,30.05,NNW,334,22.0,36.0,79,0.00,,,0.00,Weather View 32 v70,2013-08-26 14:53:00,
2013-08-26 04:59:00,72.7,66.5,30.05,NNW,330,27.0,36.0,81,0.00,,,0.00,Weather View 32 v70,2013-08-26 14:59:00,
2013-08-26 05:04:00,72.8,66.2,30.05,NNW,347,30.0,37.0,80,0.00,,,0.00,Weather View 32 v70,2013-08-26 15:04:00,
2013-08-26 05:09:00,73.1,65.8,30.06,NNW,344,14.0,37.0,78,0.00,,,0.00,Weather View 32 v70,2013-08-26 15:09:00,
2013-08-26 05:14:00,73.2,65.5,30.05,NW,316,18.0,37.0,77,0.00,,,0.00,Weather View 32 v70,2013-08-26 15:14:00,
2013-08-26 05:19:00,73.1,66.2,30.06,North,354,17.0,37.0,79,0.00,,,0.00,Weather View 32 v70,2013-08-26 15:19:00,
2013-08-26 05:24:00,72.9,66.0,30.05,NNW,333,20.0,37.0,79,0.00,,,0.00,Weather View 32 v70,2013-08-26 15:24:00,
2013-08-26 05:29:00,72.7,66.1,30.06,NNW,345,17.0,37.0,80,0.00,,,0.00,Weather View 32 v70,2013-08-26 15:29:00,
2013-08-26 05:34:00,72.6,66.8,30.05,NNW,348,22.0,37.0,82,0.00,,,0.00,Weather View 32 v70,2013-08-26 15:34:00,
2013-08-26 05:39:00,72.5,66.7,30.06,NNE,24,17.0,37.0,82,0.00,,,0.00,Weather View 32 v70,2013-08-26 15:39:00,
2013-08-26 05:44:00,72.5,67.0,30.06,North,354,23.0,37.0,83,0.00,,,0.00,Weather View 32 v70,2013-08-26 15:44:00,
2013-08-26 05:49:00,72.4,66.9,30.06,NNW,348,20.0,37.0,83,0.00,,,0.00,Weather View 32 v70,2013-08-26 15:49:00,
2013-08-26 05:54:00,72.4,67.6,30.06,NW,322,24.0,37.0,85,0.00,,,0.00,Weather View 32 v70,2013-08-26 15:54:00,
2013-08-26 05:59:00,72.3,67.5,30.05,NNW,343,24.0,37.0,85,0.00,,,0.00,Weather View 32 v70,2013-08-26 15:59:00,
2013-08-26 06:04:00,72.2,67.8,30.06,NNW,343,18.0,35.0,86,0.00,,,0.00,Weather View 32 v70,2013-08-26 16:04:00,
2013-08-26 06:09:00,72.2,68.1,30.06,North,355,23.0,35.0,87,0.00,,,0.00,Weather View 32 v70,2013-08-26 16:09:00,
2013-08-26 06:14:00,72.1,68.0,30.06,North,353,24.0,35.0,87,0.00,,,0.00,Weather View 32 v70,2013-08-26 16:14:00,
2013-08-26 06:19:00,72.1,68.0,30.06,NW,318,12.0,35.0,87,0.00,,,0.00,Weather View 32 v70,2013-08-26 16:19:00,
2013-08-26 06:24:00,72.2,67.8,30.07,NNE,31,18.0,35.0,86,0.00,,,0.00,Weather View 32 v70,2013-08-26 16:24:00,
2013-08-26 06:29:00,72.3,68.2,30.07,NNW,341,20.0,35.0,87,0.00,,,0.00,Weather View 32 v70,2013-08-26 16:29:00,
2013-08-26 06:34:00,72.4,68.3,30.07,North,355,19.0,35.0,87,0.00,,,0.00,Weather View 32 v70,2013-08-26 16:34:00,
2013-08-26 06:39:00,72.6,68.5,30.08,North,351,21.0,35.0,87,0.00,,,0.00,Weather View 32 v70,2013-08-26 16:39:00,
2013-08-26 06:44:00,72.7,68.6,30.07,North,358,22.0,35.0,87,0.00,,,0.00,Weather View 32 v70,2013-08-26 16:44:00,
2013-08-26 06:49:00,72.7,68.6,30.08,NE,35,21.0,34.0,87,0.00,,,0.00,Weather View 32 v70,2013-08-26 16:49:00,
2013-08-26 06:54:00,72.8,68.3,30.07,North,354,26.0,34.0,86,0.00,,,0.00,Weather View 32 v70,2013-08-26 16:54:00,
2013-08-26 06:59:00,72.8,68.3,30.06,NNE,24,23.0,34.0,86,0.00,,,0.00,Weather View 32 v70,2013-08-26 16:59:00,
2013-08-26 07:04:00,72.9,68.4,30.08,North,359,28.0,34.0,86,0.00,,,0.00,Weather View 32 v70,2013-08-26 17:04:00,
2013-08-26 07:09:00,73.1,68.6,30.07,North,2,23.0,34.0,86,0.00,,,0.00,Weather View 32 v70,2013-08-26 17:09:00,
2013-08-26 07:14:00,73.2,68.7,30.07,NNW,343,18.0,34.0,86,0.00,,,0.00,Weather View 32 v70,2013-08-26 17:14:00,
2013-08-26 07:19:00,73.4,68.9,30.07,North,357,18.0,34.0,86,0.00,,,0.00,Weather View 32 v70,2013-08-26 17:19:00,
2013-08-26 07:24:00,73.4,68.6,30.07,North,358,30.0,34.0,85,0.00,,,0.00,Weather View 32 v70,2013-08-26 17:24:00,
2013-08-26 07:30:00,73.1,68.6,30.08,NNE,21,20.0,33.0,86,0.00,,,0.00,Weather View 32 v70,2013-08-26 17:30:00,
2013-08-26 07:35:00,73.2,68.7,30.08,North,357,21.0,33.0,86,0.00,,,0.00,Weather View 32 v70,2013-08-26 17:35:00,
2013-08-26 07:40:00,73.4,68.9,30.07,NNE,25,24.0,33.0,86,0.00,,,0.00,Weather View 32 v70,2013-08-26 17:40:00,
2013-08-26 07:45:00,73.6,69.1,30.09,North,359,18.0,33.0,86,0.00,,,0.00,Weather View 32 v70,2013-08-26 17:45:00,
2013-08-26 07:50:00,74.1,68.9,30.08,North,8,17.0,33.0,84,0.00,,,0.00,Weather View 32 v70,2013-08-26 17:50:00,
2013-08-26 07:55:00,74.1,68.2,30.07,NNW,337,28.0,34.0,82,0.00,,,0.00,Weather View 32 v70,2013-08-26 17:55:00,
2013-08-26 08:00:00,74.2,68.0,30.08,NNW,339,21.0,34.0,81,0.00,,,0.00,Weather View 32 v70,2013-08-26 18:00:00,
2013-08-26 08:05:00,73.7,67.1,30.06,North,6,32.0,34.0,80,0.00,,,0.00,Weather View 32 v70,2013-08-26 18:05:00,
2013-08-26 08:10:00,73.8,67.6,30.08,NNW,331,22.0,34.0,81,0.00,,,0.00,Weather View 32 v70,2013-08-26 18:10:00,
2013-08-26 08:15:00,74.0,67.8,30.07,North,359,25.0,34.0,81,0.00,,,0.00,Weather View 32 v70,2013-08-26 18:15:00,
2013-08-26 08:20:00,74.1,67.1,30.07,North,350,27.0,36.0,79,0.00,,,0.00,Weather View 32 v70,2013-08-26 18:20:00,
2013-08-26 08:25:00,74.4,67.4,30.06,NNW,346,27.0,36.0,79,0.00,,,0.00,Weather View 32 v70,2013-08-26 18:25:00,
2013-08-26 08:30:00,74.0,67.0,30.06,North,360,31.0,40.0,79,0.00,,,0.00,Weather View 32 v70,2013-08-26 18:30:00,
2013-08-26 08:35:00,74.1,67.1,30.07,NNE,14,31.0,40.0,79,0.00,,,0.00,Weather View 32 v70,2013-08-26 18:35:00,
2013-08-26 08:40:00,73.8,67.2,30.09,NNW,345,24.0,40.0,80,0.00,,,0.00,Weather View 32 v70,2013-08-26 18:40:00,
2013-08-26 08:47:00,74.2,68.0,30.08,North,353,35.0,40.0,81,0.00,,,0.00,Weather View 32 v70,2013-08-26 18:47:00,
2013-08-26 08:53:00,74.8,68.2,30.07,NNE,13,18.0,40.0,80,0.00,,,0.00,Weather View 32 v70,2013-08-26 18:53:00,
2013-08-26 08:59:00,74.8,68.2,30.07,North,1,24.0,40.0,80,0.00,,,0.00,Weather View 32 v70,2013-08-26 18:59:00,
2013-08-26 09:07:00,74.4,67.8,30.08,North,349,21.0,40.0,80,0.00,,,0.00,Weather View 32 v70,2013-08-26 19:07:00,
2013-08-26 09:14:00,75.5,68.5,30.07,NNE,30,25.0,40.0,79,0.00,,,0.00,Weather View 32 v70,2013-08-26 19:14:00,
2013-08-26 09:15:00,75.5,68.5,30.07,North,5,29.0,40.0,79,0.00,,,0.00,Weather View 32 v70,2013-08-26 19:15:00,
2013-08-26 09:20:00,74.9,68.3,30.08,North,8,22.0,41.0,80,0.00,,,0.00,Weather View 32 v70,2013-08-26 19:20:00,
2013-08-26 09:27:00,75.0,68.4,30.08,NNW,345,24.0,41.0,80,0.00,,,0.00,Weather View 32 v70,2013-08-26 19:27:00,
2013-08-26 09:32:00,75.0,68.0,30.07,North,358,25.0,41.0,79,0.00,,,0.00,Weather View 32 v70,2013-08-26 19:32:00,
2013-08-26 09:37:00,75.2,68.2,30.10,NNE,22,23.0,41.0,79,0.00,,,0.00,Weather View 32 v70,2013-08-26 19:37:00,
2013-08-26 09:40:00,75.1,68.5,30.09,North,10,25.0,41.0,80,0.00,,,0.00,Weather View 32 v70,2013-08-26 19:40:00,
2013-08-26 09:43:00,75.5,68.9,30.08,North,9,26.0,41.0,80,0.00,,,0.00,Weather View 32 v70,2013-08-26 19:43:00,
2013-08-26 09:48:00,75.0,68.4,30.09,NW,323,26.0,41.0,80,0.00,,,0.00,Weather View 32 v70,2013-08-26 19:48:00,
2013-08-26 09:54:00,75.3,68.3,30.07,North,1,30.0,41.0,79,0.00,,,0.00,Weather View 32 v70,2013-08-26 19:54:00,
2013-08-26 10:00:00,75.3,67.9,30.09,North,9,28.0,41.0,78,0.00,,,0.00,Weather View 32 v70,2013-08-26 20:00:00,
2013-08-26 10:06:00,75.5,69.2,30.07,North,3,31.0,41.0,81,0.00,,,0.00,Weather View 32 v70,2013-08-26 20:06:00,
2013-08-26 10:12:00,75.8,68.8,30.07,NE,43,25.0,41.0,79,0.00,,,0.00,Weather View 32 v70,2013-08-26 20:12:00,
2013-08-26 10:18:00,76.6,67.3,30.08,NNE,14,19.0,41.0,73,0.00,,,0.00,Weather View 32 v70,2013-08-26 20:18:00,
2013-08-26 10:20:00,76.7,67.8,30.07,NNE,21,31.0,41.0,74,0.00,,,0.00,Weather View 32 v70,2013-08-26 20:20:00,
2013-08-26 10:24:00,76.7,66.6,30.07,North,1,23.0,41.0,71,0.00,,,0.00,Weather View 32 v70,2013-08-26 20:24:00,
2013-08-26 10:25:00,76.7,66.6,30.07,North,353,21.0,41.0,71,0.00,,,0.00,Weather View 32 v70,2013-08-26 20:25:00,
2013-08-26 10:30:00,76.3,67.0,30.09,North,9,30.0,41.0,73,0.00,,,0.00,Weather View 32 v70,2013-08-26 20:30:00,
2013-08-26 10:36:00,76.1,66.0,30.08,North,11,26.0,41.0,71,0.00,,,0.00,Weather View 32 v70,2013-08-26 20:36:00,
2013-08-26 10:43:00,76.6,67.3,30.08,North,3,25.0,41.0,73,0.00,,,0.00,Weather View 32 v70,2013-08-26 20:43:00,
2013-08-26 10:48:00,77.5,66.5,30.07,North,349,18.0,41.0,69,0.00,,,0.00,Weather View 32 v70,2013-08-26 20:48:00,
2013-08-26 10:54:00,76.9,66.3,30.08,NNW,343,26.0,41.0,70,0.00,,,0.00,Weather View 32 v70,2013-08-26 20:54:00,
2013-08-26 10:59:00,76.7,65.7,30.08,NNE,32,20.0,41.0,69,0.00,,,0.00,Weather View 32 v70,2013-08-26 20:59:00,
2013-08-26 11:04:00,77.3,66.3,30.08,North,351,31.0,41.0,69,0.00,,,0.00,Weather View 32 v70,2013-08-26 21:04:00,
2013-08-26 11:09:00,77.6,66.2,30.08,North,6,37.0,39.0,68,0.00,,,0.00,Weather View 32 v70,2013-08-26 21:09:00,
2013-08-26 11:10:00,77.6,66.2,30.06,NNE,23,24.0,39.0,68,0.00,,,0.00,Weather View 32 v70,2013-08-26 21:10:00,
2013-08-26 11:15:00,77.5,64.8,30.06,NNW,344,16.0,39.0,65,0.00,,,0.00,Weather View 32 v70,2013-08-26 21:15:00,
2013-08-26 11:20:00,77.7,66.3,30.06,North,1,30.0,39.0,68,0.00,,,0.00,Weather View 32 v70,2013-08-26 21:20:00,
2013-08-26 11:28:00,77.9,64.7,30.06,NNE,24,24.0,39.0,64,0.00,,,0.00,Weather View 32 v70,2013-08-26 21:28:00,
2013-08-26 11:35:00,77.8,64.6,30.06,NNE,12,26.0,39.0,64,0.00,,,0.00,Weather View 32 v70,2013-08-26 21:35:00,
2013-08-26 11:40:00,78.5,64.8,30.04,NNE,16,29.0,39.0,63,0.00,,,0.00,Weather View 32 v70,2013-08-26 21:40:00,
2013-08-26 11:45:00,78.7,65.0,30.05,North,6,30.0,39.0,63,0.00,,,0.00,Weather View 32 v70,2013-08-26 21:45:00,
2013-08-26 11:47:00,78.8,64.2,30.05,North,357,24.0,39.0,61,0.00,,,0.00,Weather View 32 v70,2013-08-26 21:47:00,
2013-08-26 11:50:00,78.6,64.9,30.05,North,350,22.0,39.0,63,0.00,,,0.00,Weather View 32 v70,2013-08-26 21:50:00,
2013-08-26 11:52:00,78.9,64.7,30.05,North,5,23.0,39.0,62,0.00,,,0.00,Weather View 32 v70,2013-08-26 21:52:00,
2013-08-26 11:55:00,78.8,64.2,30.05,NNE,27,27.0,39.0,61,0.00,,,0.00,Weather View 32 v70,2013-08-26 21:55:00,
2013-08-26 11:58:00,78.7,65.9,30.06,NNW,335,20.0,37.0,65,0.00,,,0.00,Weather View 32 v70,2013-08-26 21:58:00,
2013-08-26 12:03:00,78.8,65.1,30.05,North,358,23.0,37.0,63,0.00,,,0.00,Weather View 32 v70,2013-08-26 22:03:00,
2013-08-26 12:09:00,78.7,65.4,30.04,North,4,28.0,37.0,64,0.00,,,0.00,Weather View 32 v70,2013-08-26 22:09:00,
2013-08-26 12:15:00,78.4,63.3,30.05,North,349,23.0,37.0,60,0.00,,,0.00,Weather View 32 v70,2013-08-26 22:15:00,
2013-08-26 12:16:00,78.3,63.2,30.05,NNE,14,19.0,37.0,60,0.00,,,0.00,Weather View 32 v70,2013-08-26 22:16:00,
2013-08-26 12:20:00,78.5,63.9,30.04,NNE,16,26.0,38.0,61,0.00,,,0.00,Weather View 32 v70,2013-08-26 22:20:00,
2013-08-26 12:21:00,78.2,64.1,30.05,North,359,25.0,38.0,62,0.00,,,0.00,Weather View 32 v70,2013-08-26 22:21:00,
2013-08-26 12:25:00,78.5,65.3,30.05,North,358,22.0,38.0,64,0.00,,,0.00,Weather View 32 v70,2013-08-26 22:25:00,
2013-08-26 12:29:00,78.5,65.3,30.05,NNE,17,22.0,38.0,64,0.00,,,0.00,Weather View 32 v70,2013-08-26 22:29:00,
2013-08-26 12:34:00,78.2,65.9,30.04,North,7,25.0,38.0,66,0.00,,,0.00,Weather View 32 v70,2013-08-26 22:34:00,
2013-08-26 12:40:00,77.5,65.6,30.04,NNE,26,23.0,38.0,67,0.00,,,0.00,Weather View 32 v70,2013-08-26 22:40:00,
2013-08-26 12:45:00,77.1,65.7,30.03,North,359,30.0,38.0,68,0.00,,,0.00,Weather View 32 v70,2013-08-26 22:45:00,
2013-08-26 12:55:00,76.9,66.7,30.03,NNE,13,25.0,38.0,71,0.00,,,0.00,Weather View 32 v70,2013-08-26 22:55:00,
2013-08-26 13:02:00,77.1,67.7,30.04,North,9,28.0,40.0,73,0.00,,,0.00,Weather View 32 v70,2013-08-26 23:02:00,
2013-08-26 13:07:00,77.2,67.4,30.04,NNW,331,21.0,40.0,72,0.00,,,0.00,Weather View 32 v70,2013-08-26 23:07:00,
2013-08-26 13:10:00,77.1,67.3,30.05,North,349,35.0,40.0,71,0.00,,,0.00,Weather View 32 v70,2013-08-26 23:10:00,
2013-08-26 13:13:00,76.9,67.1,30.03,North,2,20.0,40.0,72,0.00,,,0.00,Weather View 32 v70,2013-08-26 23:13:00,
2013-08-26 13:15:00,77.1,67.7,30.04,North,355,17.0,40.0,73,0.00,,,0.00,Weather View 32 v70,2013-08-26 23:15:00,
2013-08-26 13:19:00,76.9,67.1,30.02,NNE,17,25.0,40.0,72,0.00,,,0.00,Weather View 32 v70,2013-08-26 23:19:00,
2013-08-26 13:25:00,76.5,67.6,30.03,NNW,334,31.0,40.0,74,0.00,,,0.00,Weather View 32 v70,2013-08-26 23:25:00,
2013-08-26 13:30:00,76.4,67.5,30.04,NNW,334,31.0,40.0,74,0.00,,,0.00,Weather View 32 v70,2013-08-26 23:30:00,
2013-08-26 13:35:00,76.5,67.6,30.04,NE,39,18.0,40.0,74,0.00,,,0.00,Weather View 32 v70,2013-08-26 23:35:00,
2013-08-26 13:40:00,76.5,67.6,30.02,NNW,332,18.0,40.0,74,0.00,,,0.00,Weather View 32 v70,2013-08-26 23:40:00,
2013-08-26 13:48:00,76.2,67.7,30.02,NNW,339,30.0,40.0,75,0.00,,,0.00,Weather View 32 v70,2013-08-26 23:48:00,
2013-08-26 13:50:00,76.2,67.7,30.03,North,3,21.0,40.0,75,0.00,,,0.00,Weather View 32 v70,2013-08-26 23:50:00,
2013-08-26 13:53:00,76.0,67.5,30.04,NNW,341,24.0,40.0,75,0.00,,,0.00,Weather View 32 v70,2013-08-26 23:53:00,
2013-08-26 13:55:00,75.9,67.4,30.03,NW,314,25.0,40.0,75,0.00,,,0.00,Weather View 32 v70,2013-08-26 23:55:00,
2013-08-26 13:58:00,75.9,67.8,30.04,North,7,14.0,40.0,76,0.00,,,0.00,Weather View 32 v70,2013-08-26 23:58:00,
2013-08-26 14:03:00,75.8,67.7,30.04,North,355,38.0,40.0,76,0.00,,,0.00,Weather View 32 v70,2013-08-27 00:03:00,
2013-08-26 14:11:00,76.0,67.9,30.03,NNW,330,24.0,38.0,76,0.00,,,0.00,Weather View 32 v70,2013-08-27 00:11:00,
2013-08-26 14:15:00,75.9,67.4,30.03,NNW,347,21.0,38.0,75,0.00,,,0.00,Weather View 32 v70,2013-08-27 00:15:00,
2013-08-26 14:19:00,75.8,67.3,30.03,North,6,15.0,38.0,75,0.00,,,0.00,Weather View 32 v70,2013-08-27 00:19:00,
2013-08-26 14:20:00,75.8,67.3,30.02,NW,309,30.0,38.0,75,0.00,,,0.00,Weather View 32 v70,2013-08-27 00:20:00,
2013-08-26 14:25:00,75.9,67.0,30.03,NW,326,23.0,38.0,74,0.00,,,0.00,Weather View 32 v70,2013-08-27 00:25:00,
2013-08-26 14:26:00,75.8,66.5,30.04,NW,319,36.0,38.0,73,0.00,,,0.00,Weather View 32 v70,2013-08-27 00:26:00,
2013-08-26 14:30:00,75.9,66.6,30.03,NNE,31,18.0,38.0,73,0.00,,,0.00,Weather View 32 v70,2013-08-27 00:30:00,
2013-08-26 14:31:00,75.9,66.6,30.03,NNW,329,23.0,38.0,73,0.00,,,0.00,Weather View 32 v70,2013-08-27 00:31:00,
2013-08-26 14:35:00,75.8,66.5,30.04,North,9,11.0,38.0,73,0.00,,,0.00,Weather View 32 v70,2013-08-27 00:35:00,
2013-08-26 14:38:00,76.0,66.7,30.02,NW,324,21.0,38.0,73,0.00,,,0.00,Weather View 32 v70,2013-08-27 00:38:00,
2013-08-26 14:45:00,76.2,66.5,30.03,North,359,15.0,38.0,72,0.00,,,0.00,Weather View 32 v70,2013-08-27 00:45:00,
2013-08-26 14:50:00,76.2,66.5,30.01,NNW,342,23.0,40.0,72,0.00,,,0.00,Weather View 32 v70,2013-08-27 00:50:00,
2013-08-26 14:55:00,76.2,66.9,30.02,NNW,334,33.0,40.0,73,0.00,,,0.00,Weather View 32 v70,2013-08-27 00:55:00,
2013-08-26 15:01:00,76.0,66.7,30.02,NW,320,16.0,40.0,73,0.00,,,0.00,Weather View 32 v70,2013-08-27 01:01:00,
2013-08-26 15:07:00,76.2,66.5,30.02,NW,308,28.0,40.0,72,0.00,,,0.00,Weather View 32 v70,2013-08-27 01:07:00,
2013-08-26 15:10:00,76.2,66.5,30.02,NNW,331,28.0,40.0,72,0.00,,,0.00,Weather View 32 v70,2013-08-27 01:10:00,
2013-08-26 15:12:00,76.2,66.5,30.02,North,3,15.0,40.0,72,0.00,,,0.00,Weather View 32 v70,2013-08-27 01:12:00,
2013-08-26 15:15:00,76.3,66.6,30.02,NNW,335,26.0,40.0,72,0.00,,,0.00,Weather View 32 v70,2013-08-27 01:15:00,
2013-08-26 15:17:00,76.7,66.6,30.01,NNW,335,17.0,40.0,71,0.00,,,0.00,Weather View 32 v70,2013-08-27 01:17:00,
2013-08-26 15:20:00,76.6,66.5,30.02,NNW,329,13.0,40.0,71,0.00,,,0.00,Weather View 32 v70,2013-08-27 01:20:00,
2013-08-26 15:23:00,76.6,66.9,30.01,North,360,13.0,40.0,72,0.00,,,0.00,Weather View 32 v70,2013-08-27 01:23:00,
2013-08-26 15:25:00,76.6,66.9,30.03,North,355,6.0,40.0,72,0.00,,,0.00,Weather View 32 v70,2013-08-27 01:25:00,
2013-08-26 15:30:00,76.8,67.1,30.02,NW,318,13.0,40.0,72,0.00,,,0.00,Weather View 32 v70,2013-08-27 01:30:00,
2013-08-26 15:35:00,77.2,67.0,30.02,NW,320,9.0,40.0,71,0.00,,,0.00,Weather View 32 v70,2013-08-27 01:35:00,
2013-08-26 15:36:00,77.3,66.7,30.03,West,275,7.0,40.0,70,0.00,,,0.00,Weather View 32 v70,2013-08-27 01:36:00,
2013-08-26 15:40:00,77.3,67.1,30.03,NW,325,13.0,40.0,71,0.00,,,0.00,Weather View 32 v70,2013-08-27 01:40:00,
2013-08-26 15:41:00,77.0,66.8,30.02,NNW,340,8.0,40.0,71,0.00,,,0.00,Weather View 32 v70,2013-08-27 01:41:00,
2013-08-26 15:45:00,76.9,67.1,30.03,North,356,5.0,40.0,72,0.00,,,0.00,Weather View 32 v70,2013-08-27 01:45:00,
2013-08-26 15:47:00,76.9,67.1,30.02,NNW,328,20.0,40.0,72,0.00,,,0.00,Weather View 32 v70,2013-08-27 01:47:00,
2013-08-26 15:50:00,76.7,67.4,30.03,NW,315,10.0,40.0,73,0.00,,,0.00,Weather View 32 v70,2013-08-27 01:50:00,
2013-08-26 15:54:00,76.5,67.2,30.03,NNW,335,9.0,40.0,73,0.00,,,0.00,Weather View 32 v70,2013-08-27 01:54:00,
2013-08-26 15:59:00,76.3,67.0,30.03,North,359,19.0,40.0,73,0.00,,,0.00,Weather View 32 v70,2013-08-27 01:59:00,
2013-08-26 16:05:00,76.2,66.9,30.03,NW,319,10.0,39.0,73,0.00,,,0.00,Weather View 32 v70,2013-08-27 02:05:00,
2013-08-26 16:10:00,76.4,67.1,30.02,North,355,24.0,34.0,73,0.00,,,0.00,Weather View 32 v70,2013-08-27 02:10:00,
2013-08-26 16:15:00,76.1,67.2,30.03,NW,318,14.0,34.0,74,0.00,,,0.00,Weather View 32 v70,2013-08-27 02:15:00,
2013-08-26 16:20:00,76.0,67.5,30.03,North,355,12.0,30.0,75,0.00,,,0.00,Weather View 32 v70,2013-08-27 02:20:00,
2013-08-26 16:22:00,76.0,67.5,30.02,NNW,339,17.0,30.0,75,0.00,,,0.00,Weather View 32 v70,2013-08-27 02:22:00,
2013-08-26 16:25:00,75.8,67.7,30.01,NNE,14,21.0,30.0,76,0.00,,,0.00,Weather View 32 v70,2013-08-27 02:25:00,
2013-08-26 16:27:00,75.7,67.6,30.01,NNW,347,22.0,30.0,76,0.00,,,0.00,Weather View 32 v70,2013-08-27 02:27:00,
2013-08-26 16:30:00,75.4,67.7,30.03,NW,326,14.0,30.0,77,0.00,,,0.00,Weather View 32 v70,2013-08-27 02:30:00,
2013-08-26 16:36:00,75.1,67.7,30.02,WNW,301,14.0,30.0,78,0.00,,,0.00,Weather View 32 v70,2013-08-27 02:36:00,
2013-08-26 16:41:00,74.9,67.9,30.02,North,360,15.0,32.0,79,0.00,,,0.00,Weather View 32 v70,2013-08-27 02:41:00,
2013-08-26 16:47:00,74.9,67.9,30.03,WNW,302,13.0,32.0,79,0.00,,,0.00,Weather View 32 v70,2013-08-27 02:47:00,
2013-08-26 16:52:00,74.9,67.9,30.01,NW,323,19.0,33.0,79,0.00,,,0.00,Weather View 32 v70,2013-08-27 02:52:00,
2013-08-26 16:58:00,74.8,67.8,30.01,WNW,296,19.0,33.0,79,0.00,,,0.00,Weather View 32 v70,2013-08-27 02:58:00,
2013-08-26 17:03:00,74.8,67.5,30.02,NNW,329,15.0,33.0,78,0.00,,,0.00,Weather View 32 v70,2013-08-27 03:03:00,
2013-08-26 17:10:00,75.0,67.3,30.01,West,278,21.0,33.0,77,0.00,,,0.00,Weather View 32 v70,2013-08-27 03:10:00,
2013-08-26 17:15:00,75.1,67.0,30.00,NW,312,22.0,33.0,76,0.00,,,0.00,Weather View 32 v70,2013-08-27 03:15:00,
2013-08-26 17:16:00,75.1,67.0,30.02,NW,318,18.0,33.0,76,0.00,,,0.00,Weather View 32 v70,2013-08-27 03:16:00,
2013-08-26 17:20:00,75.3,66.8,30.02,NNW,339,15.0,33.0,75,0.00,,,0.00,Weather View 32 v70,2013-08-27 03:20:00,
2013-08-26 17:22:00,75.3,66.8,30.03,NE,38,12.0,33.0,75,0.00,,,0.00,Weather View 32 v70,2013-08-27 03:22:00,
2013-08-26 17:25:00,75.2,66.7,30.02,NW,320,16.0,33.0,75,0.00,,,0.00,Weather View 32 v70,2013-08-27 03:25:00,
2013-08-26 17:27:00,75.1,66.6,30.03,NW,309,18.0,33.0,75,0.00,,,0.00,Weather View 32 v70,2013-08-27 03:27:00,
2013-08-26 17:32:00,75.2,66.3,30.02,WNW,287,16.0,33.0,74,0.00,,,0.00,Weather View 32 v70,2013-08-27 03:32:00,
2013-08-26 17:37:00,75.2,66.3,30.03,NW,309,12.0,33.0,74,0.00,,,0.00,Weather View 32 v70,2013-08-27 03:37:00,
2013-08-26 17:43:00,75.2,65.9,30.03,NW,317,17.0,33.0,73,0.00,,,0.00,Weather View 32 v70,2013-08-27 03:43:00,
2013-08-26 17:48:00,75.3,66.0,30.03,North,4,10.0,33.0,73,0.00,,,0.00,Weather View 32 v70,2013-08-27 03:48:00,
2013-08-26 17:53:00,75.3,65.6,30.03,NW,308,16.0,33.0,72,0.00,,,0.00,Weather View 32 v70,2013-08-27 03:53:00,
2013-08-26 17:58:00,75.3,65.6,30.03,NW,317,19.0,33.0,72,0.00,,,0.00,Weather View 32 v70,2013-08-27 03:58:00,
2013-08-26 18:01:00,75.3,65.6,30.03,North,349,15.0,30.0,72,0.00,,,0.00,Weather View 32 v70,2013-08-27 04:01:00,
2013-08-26 18:06:00,75.5,65.8,30.03,WNW,302,11.0,30.0,72,0.00,,,0.00,Weather View 32 v70,2013-08-27 04:06:00,
2013-08-26 18:11:00,75.3,66.0,30.03,WNW,299,15.0,32.0,73,0.00,,,0.00,Weather View 32 v70,2013-08-27 04:11:00,
2013-08-26 18:16:00,75.1,65.8,30.04,NNW,340,20.0,33.0,73,0.00,,,0.00,Weather View 32 v70,2013-08-27 04:16:00,
2013-08-26 18:21:00,74.8,65.9,30.03,NNW,347,20.0,33.0,74,0.00,,,0.00,Weather View 32 v70,2013-08-27 04:21:00,
2013-08-26 18:26:00,74.5,66.0,30.03,NNW,332,15.0,33.0,75,0.00,,,0.00,Weather View 32 v70,2013-08-27 04:26:00,
2013-08-26 18:31:00,74.4,65.5,30.03,NNW,335,22.0,33.0,74,0.00,,,0.00,Weather View 32 v70,2013-08-27 04:31:00,
2013-08-26 18:36:00,74.4,65.5,30.04,NW,319,20.0,33.0,74,0.00,,,0.00,Weather View 32 v70,2013-08-27 04:36:00,
2013-08-26 18:41:00,74.2,65.3,30.03,WNW,302,20.0,33.0,74,0.00,,,0.00,Weather View 32 v70,2013-08-27 04:41:00,
2013-08-26 18:46:00,74.0,65.5,30.03,NW,312,22.0,38.0,75,0.00,,,0.00,Weather View 32 v70,2013-08-27 04:46:00,
2013-08-26 18:51:00,74.0,65.9,30.04,NW,310,23.0,39.0,76,0.00,,,0.00,Weather View 32 v70,2013-08-27 04:51:00,
2013-08-26 18:56:00,73.9,65.8,30.03,NW,316,29.0,39.0,76,0.00,,,0.00,Weather View 32 v70,2013-08-27 04:56:00,
2013-08-26 19:01:00,73.8,66.5,30.04,WNW,296,21.0,39.0,78,0.00,,,0.00,Weather View 32 v70,2013-08-27 05:01:00,
2013-08-26 19:07:00,73.7,66.4,30.05,NW,310,12.0,39.0,78,0.00,,,0.00,Weather View 32 v70,2013-08-27 05:07:00,
2013-08-26 19:12:00,73.6,66.7,30.05,NW,315,13.0,39.0,79,0.00,,,0.00,Weather View 32 v70,2013-08-27 05:12:00,
2013-08-26 19:17:00,73.5,66.9,30.06,North,353,8.0,39.0,80,0.00,,,0.00,Weather View 32 v70,2013-08-27 05:17:00,
2013-08-26 19:22:00,73.4,67.2,30.05,North,5,18.0,39.0,81,0.00,,,0.00,Weather View 32 v70,2013-08-27 05:22:00,
2013-08-26 19:27:00,73.2,67.0,30.06,NNW,335,13.0,39.0,81,0.00,,,0.00,Weather View 32 v70,2013-08-27 05:27:00,
2013-08-26 19:32:00,73.2,67.0,30.07,NNW,334,14.0,39.0,81,0.00,,,0.00,Weather View 32 v70,2013-08-27 05:32:00,
2013-08-26 19:37:00,73.2,67.0,30.05,WNW,299,23.0,39.0,81,0.00,,,0.00,Weather View 32 v70,2013-08-27 05:37:00,
2013-08-26 19:42:00,73.1,67.3,30.05,NW,326,26.0,39.0,82,0.00,,,0.00,Weather View 32 v70,2013-08-27 05:42:00,
2013-08-26 19:47:00,73.0,67.5,30.07,North,3,15.0,39.0,83,0.00,,,0.00,Weather View 32 v70,2013-08-27 05:47:00,
2013-08-26 19:52:00,72.9,67.4,30.06,North,352,29.0,38.0,83,0.00,,,0.00,Weather View 32 v70,2013-08-27 05:52:00,
2013-08-26 19:57:00,72.8,67.3,30.06,NNW,331,25.0,38.0,83,0.00,,,0.00,Weather View 32 v70,2013-08-27 05:57:00,
2013-08-26 20:02:00,72.8,67.3,30.07,NW,317,19.0,40.0,83,0.00,,,0.00,Weather View 32 v70,2013-08-27 06:02:00,
2013-08-26 20:07:00,72.7,66.9,30.06,North,355,26.0,40.0,82,0.00,,,0.00,Weather View 32 v70,2013-08-27 06:07:00,
2013-08-26 20:12:00,72.7,66.9,30.08,North,9,15.0,40.0,82,0.00,,,0.00,Weather View 32 v70,2013-08-27 06:12:00,
2013-08-26 20:17:00,72.7,66.9,30.07,NW,322,24.0,40.0,82,0.00,,,0.00,Weather View 32 v70,2013-08-27 06:17:00,
2013-08-26 20:22:00,72.7,66.5,30.08,NNW,334,10.0,40.0,81,0.00,,,0.00,Weather View 32 v70,2013-08-27 06:22:00,
2013-08-26 20:27:00,72.7,66.5,30.07,NNW,337,23.0,40.0,81,0.00,,,0.00,Weather View 32 v70,2013-08-27 06:27:00,
2013-08-26 20:32:00,72.7,66.9,30.08,NNW,345,21.0,40.0,82,0.00,,,0.00,Weather View 32 v70,2013-08-27 06:32:00,
2013-08-26 20:37:00,72.7,66.9,30.08,North,6,13.0,40.0,82,0.00,,,0.00,Weather View 32 v70,2013-08-27 06:37:00,
2013-08-26 20:42:00,72.6,67.1,30.07,NNW,344,24.0,40.0,83,0.00,,,0.00,Weather View 32 v70,2013-08-27 06:42:00,
2013-08-26 20:47:00,72.6,67.1,30.08,North,4,29.0,40.0,83,0.00,,,0.00,Weather View 32 v70,2013-08-27 06:47:00,
2013-08-26 20:52:00,72.6,67.1,30.08,NNW,347,21.0,40.0,83,0.00,,,0.00,Weather View 32 v70,2013-08-27 06:52:00,
2013-08-26 20:57:00,72.6,67.1,30.08,NNE,29,16.0,40.0,83,0.00,,,0.00,Weather View 32 v70,2013-08-27 06:57:00,
2013-08-26 21:02:00,72.6,66.8,30.08,North,353,13.0,36.0,82,0.00,,,0.00,Weather View 32 v70,2013-08-27 07:02:00,
2013-08-26 21:07:00,72.6,66.4,30.07,NNW,345,23.0,36.0,81,0.00,,,0.00,Weather View 32 v70,2013-08-27 07:07:00,
2013-08-26 21:12:00,72.6,66.4,30.07,NW,322,28.0,37.0,81,0.00,,,0.00,Weather View 32 v70,2013-08-27 07:12:00,
2013-08-26 21:17:00,72.6,66.4,30.08,North,355,27.0,37.0,81,0.00,,,0.00,Weather View 32 v70,2013-08-27 07:17:00,
2013-08-26 21:22:00,72.6,66.1,30.07,North,353,21.0,37.0,80,0.00,,,0.00,Weather View 32 v70,2013-08-27 07:22:00,
2013-08-26 21:27:00,72.6,65.7,30.08,North,6,20.0,37.0,79,0.00,,,0.00,Weather View 32 v70,2013-08-27 07:27:00,
2013-08-26 21:32:00,72.7,65.4,30.08,NNW,330,25.0,37.0,78,0.00,,,0.00,Weather View 32 v70,2013-08-27 07:32:00,
2013-08-26 21:37:00,72.8,65.5,30.06,NNE,16,28.0,41.0,78,0.00,,,0.00,Weather View 32 v70,2013-08-27 07:37:00,
2013-08-26 21:42:00,72.7,65.4,30.07,NNW,335,33.0,41.0,78,0.00,,,0.00,Weather View 32 v70,2013-08-27 07:42:00,
2013-08-26 21:47:00,72.6,65.7,30.08,North,354,17.0,41.0,79,0.00,,,0.00,Weather View 32 v70,2013-08-27 07:47:00,
2013-08-26 21:52:00,72.6,65.7,30.07,NNW,342,29.0,41.0,79,0.00,,,0.00,Weather View 32 v70,2013-08-27 07:52:00,
2013-08-26 21:57:00,72.6,66.1,30.09,North,353,22.0,41.0,80,0.00,,,0.00,Weather View 32 v70,2013-08-27 07:57:00,
2013-08-26 22:02:00,72.5,66.0,30.09,NNE,31,26.0,41.0,80,0.00,,,0.00,Weather View 32 v70,2013-08-27 08:02:00,
2013-08-26 22:07:00,72.5,66.0,30.08,NW,326,23.0,41.0,80,0.00,,,0.00,Weather View 32 v70,2013-08-27 08:07:00,
2013-08-26 22:12:00,72.5,66.0,30.08,North,6,26.0,41.0,80,0.00,,,0.00,Weather View 32 v70,2013-08-27 08:12:00,
2013-08-26 22:17:00,72.5,66.7,30.08,NNW,327,14.0,41.0,82,0.00,,,0.00,Weather View 32 v70,2013-08-27 08:17:00,
2013-08-26 22:22:00,72.3,66.5,30.09,NNW,337,19.0,41.0,82,0.00,,,0.00,Weather View 32 v70,2013-08-27 08:22:00,
2013-08-26 22:27:00,72.4,66.2,30.09,NNE,20,15.0,41.0,81,0.00,,,0.00,Weather View 32 v70,2013-08-27 08:27:00,
2013-08-26 22:32:00,72.5,66.0,30.08,NNW,343,35.0,41.0,80,0.00,,,0.00,Weather View 32 v70,2013-08-27 08:32:00,
2013-08-26 22:37:00,72.5,66.3,30.08,North,355,25.0,39.0,81,0.00,,,0.00,Weather View 32 v70,2013-08-27 08:37:00,
2013-08-26 22:42:00,72.4,66.6,30.09,NNW,338,13.0,39.0,82,0.00,,,0.00,Weather View 32 v70,2013-08-27 08:42:00,
2013-08-26 22:47:00,72.4,66.6,30.10,North,6,24.0,39.0,82,0.00,,,0.00,Weather View 32 v70,2013-08-27 08:47:00,
2013-08-26 22:52:00,72.3,66.8,30.09,NNE,18,16.0,39.0,83,0.00,,,0.00,Weather View 32 v70,2013-08-27 08:52:00,
2013-08-26 22:57:00,72.2,66.7,30.09,NNW,332,18.0,37.0,83,0.00,,,0.00,Weather View 32 v70,2013-08-27 08:57:00,
2013-08-26 23:02:00,72.2,66.7,30.10,North,1,21.0,37.0,83,0.00,,,0.00,Weather View 32 v70,2013-08-27 09:02:00,
2013-08-26 23:07:00,72.2,66.7,30.11,NNW,345,18.0,37.0,83,0.00,,,0.00,Weather View 32 v70,2013-08-27 09:07:00,
2013-08-26 23:12:00,72.3,66.5,30.09,North,353,20.0,37.0,82,0.00,,,0.00,Weather View 32 v70,2013-08-27 09:12:00,
2013-08-26 23:17:00,72.4,66.2,30.09,North,356,22.0,37.0,81,0.00,,,0.00,Weather View 32 v70,2013-08-27 09:17:00,
2013-08-26 23:22:00,72.5,66.0,30.10,North,1,20.0,37.0,80,0.00,,,0.00,Weather View 32 v70,2013-08-27 09:22:00,
2013-08-26 23:27:00,72.4,66.2,30.06,NNW,347,31.0,37.0,81,0.00,,,0.00,Weather View 32 v70,2013-08-27 09:27:00,
2013-08-26 23:32:00,72.2,66.4,30.09,North,351,31.0,40.0,82,0.00,,,0.00,Weather View 32 v70,2013-08-27 09:32:00,
2013-08-26 23:37:00,72.2,66.4,30.08,North,349,27.0,40.0,82,0.00,,,0.00,Weather View 32 v70,2013-08-27 09:37:00,
2013-08-26 23:42:00,72.1,66.6,30.10,North,355,21.0,40.0,83,0.00,,,0.00,Weather View 32 v70,2013-08-27 09:42:00,
2013-08-26 23:47:00,72.1,66.6,30.10,North,360,19.0,40.0,83,0.00,,,0.00,Weather View 32 v70,2013-08-27 09:47:00,
2013-08-26 23:52:00,72.2,66.7,30.09,North,355,26.0,40.0,83,0.00,,,0.00,Weather View 32 v70,2013-08-27 09:52:00,
2013-08-26 23:57:00,72.2,66.4,30.08,NNW,347,12.0,40.0,82,0.00,,,0.00,Weather View 32 v70,2013-08-27 09:57:00,